sensor_id;sensor_type;location;lat;lon;timestamp;P1;durP1;ratioP1;P2;durP2;ratioP2
52266;SDS011;38223;50.940;4.034;2023-04-25T00:02:19;16.37;;;6.40;;
52266;SDS011;38223;50.940;4.034;2023-04-25T00:04:50;15.98;;;5.95;;
52266;SDS011;38223;50.940;4.034;2023-04-25T00:07:24;18.07;;;5.92;;
52266;SDS011;38223;50.940;4.034;2023-04-25T00:09:54;17.17;;;5.90;;
52266;SDS011;38223;50.940;4.034;2023-04-25T00:12:26;20.20;;;6.03;;
52266;SDS011;38223;50.940;4.034;2023-04-25T00:14:56;15.75;;;6.12;;
52266;SDS011;38223;50.940;4.034;2023-04-25T00:17:30;16.52;;;6.37;;
52266;SDS011;38223;50.940;4.034;2023-04-25T00:20:04;18.40;;;6.40;;
52266;SDS011;38223;50.940;4.034;2023-04-25T00:22:40;17.70;;;6.35;;
52266;SDS011;38223;50.940;4.034;2023-04-25T00:25:10;15.40;;;6.37;;
52266;SDS011;38223;50.940;4.034;2023-04-25T00:27:41;18.45;;;7.05;;
52266;SDS011;38223;50.940;4.034;2023-04-25T00:30:14;18.23;;;5.53;;
52266;SDS011;38223;50.940;4.034;2023-04-25T00:35:15;15.18;;;5.42;;
52266;SDS011;38223;50.940;4.034;2023-04-25T00:37:43;16.87;;;5.72;;
52266;SDS011;38223;50.940;4.034;2023-04-25T00:40:11;15.98;;;6.42;;
52266;SDS011;38223;50.940;4.034;2023-04-25T00:42:44;17.73;;;6.37;;
52266;SDS011;38223;50.940;4.034;2023-04-25T00:45:18;17.87;;;6.35;;
52266;SDS011;38223;50.940;4.034;2023-04-25T00:47:47;22.62;;;6.20;;
52266;SDS011;38223;50.940;4.034;2023-04-25T00:50:19;12.73;;;5.80;;
52266;SDS011;38223;50.940;4.034;2023-04-25T00:52:56;19.12;;;5.92;;
52266;SDS011;38223;50.940;4.034;2023-04-25T00:55:25;15.32;;;6.00;;
52266;SDS011;38223;50.940;4.034;2023-04-25T00:57:54;20.50;;;6.80;;
52266;SDS011;38223;50.940;4.034;2023-04-25T01:00:24;14.05;;;6.15;;
52266;SDS011;38223;50.940;4.034;2023-04-25T01:02:54;20.57;;;5.40;;
52266;SDS011;38223;50.940;4.034;2023-04-25T01:05:24;21.15;;;6.65;;
52266;SDS011;38223;50.940;4.034;2023-04-25T01:07:53;17.40;;;6.75;;
52266;SDS011;38223;50.940;4.034;2023-04-25T01:10:20;16.32;;;6.25;;
52266;SDS011;38223;50.940;4.034;2023-04-25T01:12:48;14.80;;;6.03;;
52266;SDS011;38223;50.940;4.034;2023-04-25T01:15:19;16.52;;;5.33;;
52266;SDS011;38223;50.940;4.034;2023-04-25T01:17:50;15.32;;;4.92;;
52266;SDS011;38223;50.940;4.034;2023-04-25T01:20:20;17.35;;;5.67;;
52266;SDS011;38223;50.940;4.034;2023-04-25T01:22:52;17.87;;;6.10;;
52266;SDS011;38223;50.940;4.034;2023-04-25T01:25:26;17.95;;;5.95;;
52266;SDS011;38223;50.940;4.034;2023-04-25T01:27:57;14.95;;;4.67;;
52266;SDS011;38223;50.940;4.034;2023-04-25T01:30:29;17.77;;;5.50;;
52266;SDS011;38223;50.940;4.034;2023-04-25T01:33:03;22.15;;;5.80;;
52266;SDS011;38223;50.940;4.034;2023-04-25T01:35:42;15.10;;;5.25;;
52266;SDS011;38223;50.940;4.034;2023-04-25T01:38:14;25.05;;;6.15;;
52266;SDS011;38223;50.940;4.034;2023-04-25T01:41:02;21.35;;;5.17;;
52266;SDS011;38223;50.940;4.034;2023-04-25T01:43:35;20.17;;;5.08;;
52266;SDS011;38223;50.940;4.034;2023-04-25T01:46:04;17.20;;;4.62;;
52266;SDS011;38223;50.940;4.034;2023-04-25T01:48:34;17.37;;;4.83;;
52266;SDS011;38223;50.940;4.034;2023-04-25T01:51:05;25.60;;;5.25;;
52266;SDS011;38223;50.940;4.034;2023-04-25T01:53:40;12.75;;;4.85;;
52266;SDS011;38223;50.940;4.034;2023-04-25T01:56:09;18.00;;;4.42;;
52266;SDS011;38223;50.940;4.034;2023-04-25T01:58:42;20.35;;;4.97;;
52266;SDS011;38223;50.940;4.034;2023-04-25T02:01:12;16.82;;;5.20;;
52266;SDS011;38223;50.940;4.034;2023-04-25T02:03:41;16.20;;;5.33;;
52266;SDS011;38223;50.940;4.034;2023-04-25T02:06:09;23.00;;;5.75;;
52266;SDS011;38223;50.940;4.034;2023-04-25T02:08:39;17.52;;;4.67;;
52266;SDS011;38223;50.940;4.034;2023-04-25T02:11:13;15.85;;;4.62;;
52266;SDS011;38223;50.940;4.034;2023-04-25T02:13:46;17.48;;;4.47;;
52266;SDS011;38223;50.940;4.034;2023-04-25T02:16:15;16.55;;;4.92;;
52266;SDS011;38223;50.940;4.034;2023-04-25T02:18:48;20.05;;;5.03;;
52266;SDS011;38223;50.940;4.034;2023-04-25T02:21:18;17.92;;;4.58;;
52266;SDS011;38223;50.940;4.034;2023-04-25T02:23:49;16.73;;;4.45;;
52266;SDS011;38223;50.940;4.034;2023-04-25T02:26:20;18.95;;;4.83;;
52266;SDS011;38223;50.940;4.034;2023-04-25T02:28:51;14.23;;;4.50;;
52266;SDS011;38223;50.940;4.034;2023-04-25T02:33:51;16.95;;;4.22;;
52266;SDS011;38223;50.940;4.034;2023-04-25T02:36:23;22.17;;;5.22;;
52266;SDS011;38223;50.940;4.034;2023-04-25T02:38:56;11.68;;;4.25;;
52266;SDS011;38223;50.940;4.034;2023-04-25T02:41:31;15.93;;;4.55;;
52266;SDS011;38223;50.940;4.034;2023-04-25T02:44:02;13.00;;;4.60;;
52266;SDS011;38223;50.940;4.034;2023-04-25T02:46:36;16.27;;;4.60;;
52266;SDS011;38223;50.940;4.034;2023-04-25T02:49:10;16.55;;;4.28;;
52266;SDS011;38223;50.940;4.034;2023-04-25T02:51:42;20.77;;;5.50;;
52266;SDS011;38223;50.940;4.034;2023-04-25T02:54:12;17.37;;;5.03;;
52266;SDS011;38223;50.940;4.034;2023-04-25T02:56:43;12.18;;;4.10;;
52266;SDS011;38223;50.940;4.034;2023-04-25T02:59:13;20.37;;;5.05;;
52266;SDS011;38223;50.940;4.034;2023-04-25T03:01:44;19.62;;;4.92;;
52266;SDS011;38223;50.940;4.034;2023-04-25T03:04:18;18.40;;;4.55;;
52266;SDS011;38223;50.940;4.034;2023-04-25T03:06:48;19.05;;;4.58;;
52266;SDS011;38223;50.940;4.034;2023-04-25T03:09:19;16.10;;;5.12;;
52266;SDS011;38223;50.940;4.034;2023-04-25T03:11:49;21.62;;;5.05;;
52266;SDS011;38223;50.940;4.034;2023-04-25T03:14:22;19.23;;;5.20;;
52266;SDS011;38223;50.940;4.034;2023-04-25T03:16:52;15.98;;;5.00;;
52266;SDS011;38223;50.940;4.034;2023-04-25T03:19:19;18.70;;;5.05;;
52266;SDS011;38223;50.940;4.034;2023-04-25T03:21:50;21.02;;;4.80;;
52266;SDS011;38223;50.940;4.034;2023-04-25T03:26:52;16.90;;;4.75;;
52266;SDS011;38223;50.940;4.034;2023-04-25T03:29:22;17.45;;;5.05;;
52266;SDS011;38223;50.940;4.034;2023-04-25T03:31:54;25.45;;;6.03;;
52266;SDS011;38223;50.940;4.034;2023-04-25T03:34:25;17.02;;;4.83;;
52266;SDS011;38223;50.940;4.034;2023-04-25T03:36:56;20.37;;;5.55;;
52266;SDS011;38223;50.940;4.034;2023-04-25T03:39:27;29.00;;;6.53;;
52266;SDS011;38223;50.940;4.034;2023-04-25T03:42:01;19.67;;;5.17;;
52266;SDS011;38223;50.940;4.034;2023-04-25T03:44:32;18.92;;;4.95;;
52266;SDS011;38223;50.940;4.034;2023-04-25T03:46:59;18.48;;;5.78;;
52266;SDS011;38223;50.940;4.034;2023-04-25T03:49:27;19.42;;;5.10;;
52266;SDS011;38223;50.940;4.034;2023-04-25T03:51:58;17.20;;;4.97;;
52266;SDS011;38223;50.940;4.034;2023-04-25T03:54:28;21.60;;;4.92;;
52266;SDS011;38223;50.940;4.034;2023-04-25T03:57:17;18.07;;;4.70;;
52266;SDS011;38223;50.940;4.034;2023-04-25T03:59:44;18.27;;;5.30;;
52266;SDS011;38223;50.940;4.034;2023-04-25T04:02:18;17.85;;;4.80;;
52266;SDS011;38223;50.940;4.034;2023-04-25T04:04:48;18.95;;;5.00;;
52266;SDS011;38223;50.940;4.034;2023-04-25T04:07:22;11.55;;;4.62;;
52266;SDS011;38223;50.940;4.034;2023-04-25T04:09:52;16.12;;;4.25;;
52266;SDS011;38223;50.940;4.034;2023-04-25T04:12:24;20.05;;;5.05;;
52266;SDS011;38223;50.940;4.034;2023-04-25T04:14:52;18.27;;;4.85;;
52266;SDS011;38223;50.940;4.034;2023-04-25T04:17:23;16.82;;;3.67;;
52266;SDS011;38223;50.940;4.034;2023-04-25T04:22:23;20.48;;;4.72;;
52266;SDS011;38223;50.940;4.034;2023-04-25T04:24:57;11.80;;;4.42;;
52266;SDS011;38223;50.940;4.034;2023-04-25T04:27:27;20.62;;;3.98;;
52266;SDS011;38223;50.940;4.034;2023-04-25T04:30:03;14.95;;;4.15;;
52266;SDS011;38223;50.940;4.034;2023-04-25T04:32:35;16.65;;;4.00;;
52266;SDS011;38223;50.940;4.034;2023-04-25T04:35:06;12.60;;;4.10;;
52266;SDS011;38223;50.940;4.034;2023-04-25T04:37:36;18.17;;;4.42;;
52266;SDS011;38223;50.940;4.034;2023-04-25T04:42:35;17.40;;;4.20;;
52266;SDS011;38223;50.940;4.034;2023-04-25T04:45:09;11.65;;;4.50;;
52266;SDS011;38223;50.940;4.034;2023-04-25T04:47:45;15.03;;;4.37;;
52266;SDS011;38223;50.940;4.034;2023-04-25T04:50:15;11.63;;;4.08;;
52266;SDS011;38223;50.940;4.034;2023-04-25T04:52:44;16.95;;;4.00;;
52266;SDS011;38223;50.940;4.034;2023-04-25T04:55:11;8.93;;;3.90;;
52266;SDS011;38223;50.940;4.034;2023-04-25T04:57:42;12.28;;;3.90;;
52266;SDS011;38223;50.940;4.034;2023-04-25T05:00:12;13.43;;;4.10;;
52266;SDS011;38223;50.940;4.034;2023-04-25T05:02:44;12.60;;;4.40;;
52266;SDS011;38223;50.940;4.034;2023-04-25T05:05:18;17.45;;;4.40;;
52266;SDS011;38223;50.940;4.034;2023-04-25T05:07:48;11.30;;;4.08;;
52266;SDS011;38223;50.940;4.034;2023-04-25T05:10:29;11.53;;;4.10;;
52266;SDS011;38223;50.940;4.034;2023-04-25T05:12:59;9.65;;;3.50;;
52266;SDS011;38223;50.940;4.034;2023-04-25T05:15:30;13.72;;;4.15;;
52266;SDS011;38223;50.940;4.034;2023-04-25T05:18:08;11.03;;;3.42;;
52266;SDS011;38223;50.940;4.034;2023-04-25T05:20:40;12.30;;;3.83;;
52266;SDS011;38223;50.940;4.034;2023-04-25T05:23:10;13.20;;;4.10;;
52266;SDS011;38223;50.940;4.034;2023-04-25T05:25:39;15.58;;;3.98;;
52266;SDS011;38223;50.940;4.034;2023-04-25T05:28:12;11.70;;;3.95;;
52266;SDS011;38223;50.940;4.034;2023-04-25T05:30:41;11.03;;;3.72;;
52266;SDS011;38223;50.940;4.034;2023-04-25T05:33:10;10.63;;;4.43;;
52266;SDS011;38223;50.940;4.034;2023-04-25T05:35:43;10.63;;;4.08;;
52266;SDS011;38223;50.940;4.034;2023-04-25T05:38:14;23.32;;;5.40;;
52266;SDS011;38223;50.940;4.034;2023-04-25T05:40:49;11.18;;;3.92;;
52266;SDS011;38223;50.940;4.034;2023-04-25T05:43:25;11.38;;;4.30;;
52266;SDS011;38223;50.940;4.034;2023-04-25T05:45:58;16.23;;;4.35;;
52266;SDS011;38223;50.940;4.034;2023-04-25T05:48:28;11.83;;;4.12;;
52266;SDS011;38223;50.940;4.034;2023-04-25T05:51:01;14.25;;;3.65;;
52266;SDS011;38223;50.940;4.034;2023-04-25T05:53:33;11.90;;;3.95;;
52266;SDS011;38223;50.940;4.034;2023-04-25T05:56:04;14.95;;;4.28;;
52266;SDS011;38223;50.940;4.034;2023-04-25T05:58:36;18.77;;;5.05;;
52266;SDS011;38223;50.940;4.034;2023-04-25T06:01:11;11.90;;;4.03;;
52266;SDS011;38223;50.940;4.034;2023-04-25T06:03:41;10.60;;;4.42;;
52266;SDS011;38223;50.940;4.034;2023-04-25T06:09:00;11.68;;;4.05;;
52266;SDS011;38223;50.940;4.034;2023-04-25T06:11:35;16.60;;;3.90;;
52266;SDS011;38223;50.940;4.034;2023-04-25T06:14:05;17.12;;;3.98;;
52266;SDS011;38223;50.940;4.034;2023-04-25T06:16:37;12.93;;;3.60;;
52266;SDS011;38223;50.940;4.034;2023-04-25T06:19:07;11.43;;;3.52;;
52266;SDS011;38223;50.940;4.034;2023-04-25T06:21:43;16.17;;;3.92;;
52266;SDS011;38223;50.940;4.034;2023-04-25T06:24:16;11.88;;;3.30;;
52266;SDS011;38223;50.940;4.034;2023-04-25T06:26:45;14.70;;;4.35;;
52266;SDS011;38223;50.940;4.034;2023-04-25T06:29:16;14.13;;;4.05;;
52266;SDS011;38223;50.940;4.034;2023-04-25T06:31:46;11.53;;;3.75;;
52266;SDS011;38223;50.940;4.034;2023-04-25T06:34:14;17.57;;;4.75;;
52266;SDS011;38223;50.940;4.034;2023-04-25T06:36:45;17.98;;;3.95;;
52266;SDS011;38223;50.940;4.034;2023-04-25T06:39:20;13.83;;;3.42;;
52266;SDS011;38223;50.940;4.034;2023-04-25T06:41:51;12.03;;;3.77;;
52266;SDS011;38223;50.940;4.034;2023-04-25T06:44:25;12.85;;;3.37;;
52266;SDS011;38223;50.940;4.034;2023-04-25T06:46:55;13.38;;;4.10;;
52266;SDS011;38223;50.940;4.034;2023-04-25T06:49:24;11.90;;;3.47;;
52266;SDS011;38223;50.940;4.034;2023-04-25T06:51:53;11.10;;;3.30;;
52266;SDS011;38223;50.940;4.034;2023-04-25T06:54:24;11.75;;;3.30;;
52266;SDS011;38223;50.940;4.034;2023-04-25T06:56:55;8.48;;;3.27;;
52266;SDS011;38223;50.940;4.034;2023-04-25T06:59:23;17.32;;;3.42;;
52266;SDS011;38223;50.940;4.034;2023-04-25T07:01:52;10.40;;;2.97;;
52266;SDS011;38223;50.940;4.034;2023-04-25T07:04:27;13.45;;;3.12;;
52266;SDS011;38223;50.940;4.034;2023-04-25T07:06:56;12.73;;;3.47;;
52266;SDS011;38223;50.940;4.034;2023-04-25T07:09:25;8.98;;;2.67;;
52266;SDS011;38223;50.940;4.034;2023-04-25T07:11:55;12.18;;;3.77;;
52266;SDS011;38223;50.940;4.034;2023-04-25T07:14:27;13.15;;;2.90;;
52266;SDS011;38223;50.940;4.034;2023-04-25T07:16:59;20.60;;;3.22;;
52266;SDS011;38223;50.940;4.034;2023-04-25T07:19:29;11.80;;;2.77;;
52266;SDS011;38223;50.940;4.034;2023-04-25T07:22:00;8.53;;;2.33;;
52266;SDS011;38223;50.940;4.034;2023-04-25T07:24:32;10.15;;;2.60;;
52266;SDS011;38223;50.940;4.034;2023-04-25T07:27:03;10.85;;;3.25;;
52266;SDS011;38223;50.940;4.034;2023-04-25T07:29:33;11.43;;;3.30;;
52266;SDS011;38223;50.940;4.034;2023-04-25T07:32:02;10.90;;;2.43;;
52266;SDS011;38223;50.940;4.034;2023-04-25T07:34:36;6.78;;;2.40;;
52266;SDS011;38223;50.940;4.034;2023-04-25T07:37:06;10.88;;;2.75;;
52266;SDS011;38223;50.940;4.034;2023-04-25T07:39:36;9.48;;;2.58;;
52266;SDS011;38223;50.940;4.034;2023-04-25T07:42:04;9.90;;;2.30;;
52266;SDS011;38223;50.940;4.034;2023-04-25T07:44:36;8.25;;;2.25;;
52266;SDS011;38223;50.940;4.034;2023-04-25T07:47:08;6.30;;;1.98;;
52266;SDS011;38223;50.940;4.034;2023-04-25T07:49:39;8.75;;;2.70;;
52266;SDS011;38223;50.940;4.034;2023-04-25T07:52:11;8.88;;;2.62;;
52266;SDS011;38223;50.940;4.034;2023-04-25T07:54:43;9.13;;;2.10;;
52266;SDS011;38223;50.940;4.034;2023-04-25T07:57:14;13.72;;;1.82;;
52266;SDS011;38223;50.940;4.034;2023-04-25T07:59:45;6.47;;;1.70;;
52266;SDS011;38223;50.940;4.034;2023-04-25T08:02:20;4.95;;;1.82;;
52266;SDS011;38223;50.940;4.034;2023-04-25T08:04:52;5.08;;;1.70;;
52266;SDS011;38223;50.940;4.034;2023-04-25T08:07:22;6.33;;;1.82;;
52266;SDS011;38223;50.940;4.034;2023-04-25T08:09:49;7.70;;;2.12;;
52266;SDS011;38223;50.940;4.034;2023-04-25T08:12:17;9.63;;;1.70;;
52266;SDS011;38223;50.940;4.034;2023-04-25T08:14:51;7.28;;;2.08;;
52266;SDS011;38223;50.940;4.034;2023-04-25T08:17:22;13.08;;;1.90;;
52266;SDS011;38223;50.940;4.034;2023-04-25T08:19:55;8.05;;;1.90;;
52266;SDS011;38223;50.940;4.034;2023-04-25T08:22:24;7.55;;;2.02;;
52266;SDS011;38223;50.940;4.034;2023-04-25T08:24:53;9.58;;;1.95;;
52266;SDS011;38223;50.940;4.034;2023-04-25T08:27:31;7.58;;;1.70;;
52266;SDS011;38223;50.940;4.034;2023-04-25T08:30:03;16.65;;;2.30;;
52266;SDS011;38223;50.940;4.034;2023-04-25T08:32:33;4.10;;;1.90;;
52266;SDS011;38223;50.940;4.034;2023-04-25T08:35:07;7.65;;;1.67;;
52266;SDS011;38223;50.940;4.034;2023-04-25T08:40:11;9.20;;;1.70;;
52266;SDS011;38223;50.940;4.034;2023-04-25T08:42:43;6.30;;;1.50;;
52266;SDS011;38223;50.940;4.034;2023-04-25T08:45:18;6.70;;;1.52;;
52266;SDS011;38223;50.940;4.034;2023-04-25T08:47:47;6.55;;;1.45;;
52266;SDS011;38223;50.940;4.034;2023-04-25T08:50:21;4.85;;;1.27;;
52266;SDS011;38223;50.940;4.034;2023-04-25T08:52:53;7.87;;;1.50;;
52266;SDS011;38223;50.940;4.034;2023-04-25T08:55:25;5.92;;;1.37;;
52266;SDS011;38223;50.940;4.034;2023-04-25T08:57:56;7.58;;;2.00;;
52266;SDS011;38223;50.940;4.034;2023-04-25T09:00:26;9.40;;;1.75;;
52266;SDS011;38223;50.940;4.034;2023-04-25T09:02:57;7.67;;;1.85;;
52266;SDS011;38223;50.940;4.034;2023-04-25T09:05:31;9.23;;;1.70;;
52266;SDS011;38223;50.940;4.034;2023-04-25T09:08:01;8.00;;;1.40;;
52266;SDS011;38223;50.940;4.034;2023-04-25T09:10:30;6.95;;;1.60;;
52266;SDS011;38223;50.940;4.034;2023-04-25T09:15:50;4.95;;;1.45;;
52266;SDS011;38223;50.940;4.034;2023-04-25T09:18:29;5.95;;;1.22;;
52266;SDS011;38223;50.940;4.034;2023-04-25T09:21:08;6.85;;;1.50;;
52266;SDS011;38223;50.940;4.034;2023-04-25T09:23:41;4.83;;;1.37;;
52266;SDS011;38223;50.940;4.034;2023-04-25T09:26:20;7.28;;;1.20;;
52266;SDS011;38223;50.940;4.034;2023-04-25T09:29:05;3.87;;;1.25;;
52266;SDS011;38223;50.940;4.034;2023-04-25T09:31:40;4.60;;;1.20;;
52266;SDS011;38223;50.940;4.034;2023-04-25T09:34:10;3.47;;;1.07;;
52266;SDS011;38223;50.940;4.034;2023-04-25T09:36:44;4.42;;;1.20;;
52266;SDS011;38223;50.940;4.034;2023-04-25T09:39:16;7.08;;;1.00;;
52266;SDS011;38223;50.940;4.034;2023-04-25T09:41:46;5.72;;;1.00;;
52266;SDS011;38223;50.940;4.034;2023-04-25T09:44:22;8.43;;;1.05;;
52266;SDS011;38223;50.940;4.034;2023-04-25T09:46:49;8.85;;;2.15;;
52266;SDS011;38223;50.940;4.034;2023-04-25T09:49:22;4.87;;;1.27;;
52266;SDS011;38223;50.940;4.034;2023-04-25T09:52:00;2.58;;;1.00;;
52266;SDS011;38223;50.940;4.034;2023-04-25T09:54:30;4.75;;;1.30;;
52266;SDS011;38223;50.940;4.034;2023-04-25T09:57:16;4.35;;;1.35;;
52266;SDS011;38223;50.940;4.034;2023-04-25T09:59:44;4.97;;;1.40;;
52266;SDS011;38223;50.940;4.034;2023-04-25T10:02:21;8.95;;;1.95;;
52266;SDS011;38223;50.940;4.034;2023-04-25T10:04:51;10.08;;;1.50;;
52266;SDS011;38223;50.940;4.034;2023-04-25T10:07:34;6.25;;;1.27;;
52266;SDS011;38223;50.940;4.034;2023-04-25T10:10:12;7.62;;;1.62;;
52266;SDS011;38223;50.940;4.034;2023-04-25T10:12:49;5.87;;;1.70;;
52266;SDS011;38223;50.940;4.034;2023-04-25T10:15:21;6.05;;;1.65;;
52266;SDS011;38223;50.940;4.034;2023-04-25T10:17:54;3.47;;;1.12;;
52266;SDS011;38223;50.940;4.034;2023-04-25T10:20:29;6.15;;;1.47;;
52266;SDS011;38223;50.940;4.034;2023-04-25T10:23:14;4.20;;;1.30;;
52266;SDS011;38223;50.940;4.034;2023-04-25T10:25:42;4.53;;;1.02;;
52266;SDS011;38223;50.940;4.034;2023-04-25T10:28:17;5.22;;;1.05;;
52266;SDS011;38223;50.940;4.034;2023-04-25T10:33:39;4.12;;;0.85;;
52266;SDS011;38223;50.940;4.034;2023-04-25T10:36:20;3.37;;;1.20;;
52266;SDS011;38223;50.940;4.034;2023-04-25T10:38:56;6.47;;;1.12;;
52266;SDS011;38223;50.940;4.034;2023-04-25T10:41:29;5.95;;;1.20;;
52266;SDS011;38223;50.940;4.034;2023-04-25T10:44:11;6.65;;;0.90;;
52266;SDS011;38223;50.940;4.034;2023-04-25T10:46:46;3.20;;;0.98;;
52266;SDS011;38223;50.940;4.034;2023-04-25T10:49:35;4.03;;;0.70;;
52266;SDS011;38223;50.940;4.034;2023-04-25T10:54:56;6.50;;;1.80;;
52266;SDS011;38223;50.940;4.034;2023-04-25T10:57:40;3.05;;;1.00;;
52266;SDS011;38223;50.940;4.034;2023-04-25T11:00:19;5.70;;;0.95;;
52266;SDS011;38223;50.940;4.034;2023-04-25T11:02:57;5.62;;;1.25;;
52266;SDS011;38223;50.940;4.034;2023-04-25T11:05:30;3.20;;;1.15;;
52266;SDS011;38223;50.940;4.034;2023-04-25T11:08:04;4.45;;;0.88;;
52266;SDS011;38223;50.940;4.034;2023-04-25T11:10:36;4.33;;;1.32;;
52266;SDS011;38223;50.940;4.034;2023-04-25T11:13:09;4.80;;;1.10;;
52266;SDS011;38223;50.940;4.034;2023-04-25T11:15:39;3.35;;;1.55;;
52266;SDS011;38223;50.940;4.034;2023-04-25T11:18:08;6.75;;;1.27;;
52266;SDS011;38223;50.940;4.034;2023-04-25T11:23:07;6.33;;;1.17;;
52266;SDS011;38223;50.940;4.034;2023-04-25T11:25:39;9.35;;;1.42;;
52266;SDS011;38223;50.940;4.034;2023-04-25T11:28:09;4.65;;;1.10;;
52266;SDS011;38223;50.940;4.034;2023-04-25T11:30:39;2.60;;;0.80;;
52266;SDS011;38223;50.940;4.034;2023-04-25T11:33:10;2.67;;;0.90;;
52266;SDS011;38223;50.940;4.034;2023-04-25T11:35:42;2.85;;;0.95;;
52266;SDS011;38223;50.940;4.034;2023-04-25T11:38:12;3.90;;;0.70;;
52266;SDS011;38223;50.940;4.034;2023-04-25T11:41:00;6.95;;;0.72;;
52266;SDS011;38223;50.940;4.034;2023-04-25T11:43:42;3.87;;;1.05;;
52266;SDS011;38223;50.940;4.034;2023-04-25T11:46:16;4.47;;;0.93;;
52266;SDS011;38223;50.940;4.034;2023-04-25T11:49:09;4.05;;;0.90;;
52266;SDS011;38223;50.940;4.034;2023-04-25T11:51:41;3.83;;;0.88;;
52266;SDS011;38223;50.940;4.034;2023-04-25T11:54:11;4.10;;;1.20;;
52266;SDS011;38223;50.940;4.034;2023-04-25T11:56:42;5.87;;;1.05;;
52266;SDS011;38223;50.940;4.034;2023-04-25T11:59:18;5.60;;;1.07;;
52266;SDS011;38223;50.940;4.034;2023-04-25T12:04:33;2.50;;;1.10;;
52266;SDS011;38223;50.940;4.034;2023-04-25T12:07:09;2.45;;;1.10;;
52266;SDS011;38223;50.940;4.034;2023-04-25T12:09:42;4.08;;;0.93;;
52266;SDS011;38223;50.940;4.034;2023-04-25T12:12:18;2.75;;;1.10;;
52266;SDS011;38223;50.940;4.034;2023-04-25T12:14:53;12.95;;;1.70;;
52266;SDS011;38223;50.940;4.034;2023-04-25T12:17:22;4.53;;;1.10;;
52266;SDS011;38223;50.940;4.034;2023-04-25T12:20:01;6.42;;;1.22;;
52266;SDS011;38223;50.940;4.034;2023-04-25T12:22:47;3.85;;;1.35;;
52266;SDS011;38223;50.940;4.034;2023-04-25T12:28:17;5.83;;;1.35;;
52266;SDS011;38223;50.940;4.034;2023-04-25T12:33:36;4.55;;;1.00;;
52266;SDS011;38223;50.940;4.034;2023-04-25T12:36:07;3.27;;;1.20;;
52266;SDS011;38223;50.940;4.034;2023-04-25T12:38:40;3.05;;;0.98;;
52266;SDS011;38223;50.940;4.034;2023-04-25T12:41:11;4.55;;;1.17;;
52266;SDS011;38223;50.940;4.034;2023-04-25T12:43:41;3.60;;;1.05;;
52266;SDS011;38223;50.940;4.034;2023-04-25T12:46:11;2.90;;;1.00;;
52266;SDS011;38223;50.940;4.034;2023-04-25T12:48:42;1.98;;;0.93;;
52266;SDS011;38223;50.940;4.034;2023-04-25T12:51:16;3.75;;;1.22;;
52266;SDS011;38223;50.940;4.034;2023-04-25T12:53:46;4.05;;;1.05;;
52266;SDS011;38223;50.940;4.034;2023-04-25T12:56:22;4.53;;;1.05;;
52266;SDS011;38223;50.940;4.034;2023-04-25T12:58:50;4.80;;;1.02;;
52266;SDS011;38223;50.940;4.034;2023-04-25T13:01:24;3.83;;;1.50;;
52266;SDS011;38223;50.940;4.034;2023-04-25T13:03:56;5.70;;;1.10;;
52266;SDS011;38223;50.940;4.034;2023-04-25T13:06:23;3.60;;;1.30;;
52266;SDS011;38223;50.940;4.034;2023-04-25T13:08:57;3.77;;;1.40;;
52266;SDS011;38223;50.940;4.034;2023-04-25T13:11:27;4.87;;;1.35;;
52266;SDS011;38223;50.940;4.034;2023-04-25T13:13:55;4.60;;;1.07;;
52266;SDS011;38223;50.940;4.034;2023-04-25T13:16:24;4.70;;;1.30;;
52266;SDS011;38223;50.940;4.034;2023-04-25T13:18:54;3.92;;;1.65;;
52266;SDS011;38223;50.940;4.034;2023-04-25T13:21:26;3.67;;;1.30;;
52266;SDS011;38223;50.940;4.034;2023-04-25T13:23:55;4.45;;;1.40;;
52266;SDS011;38223;50.940;4.034;2023-04-25T13:26:23;4.85;;;1.27;;
52266;SDS011;38223;50.940;4.034;2023-04-25T13:28:59;10.53;;;1.40;;
52266;SDS011;38223;50.940;4.034;2023-04-25T13:31:31;4.95;;;1.10;;
52266;SDS011;38223;50.940;4.034;2023-04-25T13:34:02;7.08;;;1.32;;
52266;SDS011;38223;50.940;4.034;2023-04-25T13:36:35;6.40;;;1.25;;
52266;SDS011;38223;50.940;4.034;2023-04-25T13:39:06;6.67;;;1.40;;
52266;SDS011;38223;50.940;4.034;2023-04-25T13:41:36;3.55;;;1.20;;
52266;SDS011;38223;50.940;4.034;2023-04-25T13:44:06;4.33;;;1.10;;
52266;SDS011;38223;50.940;4.034;2023-04-25T13:46:35;5.60;;;1.25;;
52266;SDS011;38223;50.940;4.034;2023-04-25T13:49:03;5.35;;;1.02;;
52266;SDS011;38223;50.940;4.034;2023-04-25T13:51:37;5.80;;;1.25;;
52266;SDS011;38223;50.940;4.034;2023-04-25T13:54:09;4.65;;;1.45;;
52266;SDS011;38223;50.940;4.034;2023-04-25T13:56:40;4.65;;;1.37;;
52266;SDS011;38223;50.940;4.034;2023-04-25T13:59:10;7.78;;;1.22;;
52266;SDS011;38223;50.940;4.034;2023-04-25T14:01:38;4.17;;;1.40;;
52266;SDS011;38223;50.940;4.034;2023-04-25T14:04:06;4.50;;;1.25;;
52266;SDS011;38223;50.940;4.034;2023-04-25T14:06:35;5.78;;;1.67;;
52266;SDS011;38223;50.940;4.034;2023-04-25T14:09:03;5.60;;;1.47;;
52266;SDS011;38223;50.940;4.034;2023-04-25T14:14:21;5.28;;;1.52;;
52266;SDS011;38223;50.940;4.034;2023-04-25T14:16:49;7.00;;;1.40;;
52266;SDS011;38223;50.940;4.034;2023-04-25T14:19:20;6.33;;;1.77;;
52266;SDS011;38223;50.940;4.034;2023-04-25T14:21:53;3.77;;;1.40;;
52266;SDS011;38223;50.940;4.034;2023-04-25T14:24:25;2.97;;;1.40;;
52266;SDS011;38223;50.940;4.034;2023-04-25T14:26:55;4.50;;;1.55;;
52266;SDS011;38223;50.940;4.034;2023-04-25T14:29:23;3.92;;;1.15;;
52266;SDS011;38223;50.940;4.034;2023-04-25T14:32:03;6.75;;;1.35;;
52266;SDS011;38223;50.940;4.034;2023-04-25T14:34:31;3.60;;;1.17;;
52266;SDS011;38223;50.940;4.034;2023-04-25T14:36:59;5.10;;;1.40;;
52266;SDS011;38223;50.940;4.034;2023-04-25T14:39:30;3.60;;;1.20;;
52266;SDS011;38223;50.940;4.034;2023-04-25T14:42:02;5.10;;;1.12;;
52266;SDS011;38223;50.940;4.034;2023-04-25T14:44:30;6.37;;;1.85;;
52266;SDS011;38223;50.940;4.034;2023-04-25T14:46:58;6.85;;;1.20;;
52266;SDS011;38223;50.940;4.034;2023-04-25T14:49:26;6.53;;;1.45;;
52266;SDS011;38223;50.940;4.034;2023-04-25T14:51:54;4.33;;;1.50;;
52266;SDS011;38223;50.940;4.034;2023-04-25T14:54:23;2.62;;;1.30;;
52266;SDS011;38223;50.940;4.034;2023-04-25T14:56:53;3.75;;;1.02;;
52266;SDS011;38223;50.940;4.034;2023-04-25T14:59:22;3.58;;;1.20;;
52266;SDS011;38223;50.940;4.034;2023-04-25T15:01:52;3.75;;;1.35;;
52266;SDS011;38223;50.940;4.034;2023-04-25T15:04:20;3.15;;;0.90;;
52266;SDS011;38223;50.940;4.034;2023-04-25T15:06:48;2.98;;;1.22;;
52266;SDS011;38223;50.940;4.034;2023-04-25T15:09:19;8.00;;;1.37;;
52266;SDS011;38223;50.940;4.034;2023-04-25T15:14:37;4.25;;;1.70;;
52266;SDS011;38223;50.940;4.034;2023-04-25T15:17:10;4.40;;;1.12;;
52266;SDS011;38223;50.940;4.034;2023-04-25T15:19:39;4.75;;;1.10;;
52266;SDS011;38223;50.940;4.034;2023-04-25T15:22:13;2.80;;;1.40;;
52266;SDS011;38223;50.940;4.034;2023-04-25T15:24:42;3.80;;;1.00;;
52266;SDS011;38223;50.940;4.034;2023-04-25T15:27:14;4.08;;;1.20;;
52266;SDS011;38223;50.940;4.034;2023-04-25T15:29:44;7.80;;;1.52;;
52266;SDS011;38223;50.940;4.034;2023-04-25T15:34:46;2.98;;;1.50;;
52266;SDS011;38223;50.940;4.034;2023-04-25T15:37:17;2.83;;;1.02;;
52266;SDS011;38223;50.940;4.034;2023-04-25T15:39:48;4.20;;;1.12;;
52266;SDS011;38223;50.940;4.034;2023-04-25T15:42:20;4.10;;;0.90;;
52266;SDS011;38223;50.940;4.034;2023-04-25T15:44:50;2.58;;;1.10;;
52266;SDS011;38223;50.940;4.034;2023-04-25T15:49:48;5.12;;;1.98;;
52266;SDS011;38223;50.940;4.034;2023-04-25T15:52:19;3.77;;;1.25;;
52266;SDS011;38223;50.940;4.034;2023-04-25T15:54:48;4.70;;;1.97;;
52266;SDS011;38223;50.940;4.034;2023-04-25T15:57:18;4.05;;;1.50;;